Sidestown, North Carolina
Current Conditions -  °F | °C
As of 8:53 AM on Monday 24 Nov 2014 (Local Time) from KJQF Reporting Station
Broken Clouds Broken Clouds  
Wind Chill: 64°   Ceiling: 2400
Heat Index: 64°   Visibility: 10mi
Dew Point: 57°   Wind: 9mph
Humidity: 77%   Direction: 220°SW
Pressure: 29.83"   Gusts: NA
Location:  35.3735°N, 80.5212°W
Report Text: KJQF 241353Z 22008KT 10SM BKN024 18/14 A2983
Loading
Personal Weather Stations






























Interactive Weather Map New forecast layout! Learn more

10-Day Weather Forecast

Advertisements
Track Severe Weather on mobile